KNID

Details ICAO KNID (NID)
Name China Lake Naws
Region United States
Timezone America/Los_Angeles (UTC-8.0)
Plans Departing 4
Arriving 9
Stats Elevation 2,283 ft / 696 m (AMSL)
Location 35.685516° -117.691590°
Runways 3
Magnetic Variation 12.196° E
Sunrise 2017-12-13 14:53:30 UTC / 2017-12-13 06:53:30 Local
Sunset 2017-12-14 00:39:34 UTC / 2017-12-13 16:39:34 Local
Advertisement - Login to hide

Runways

ID Width Length Bearing (true) Bearing (mag) Surface Threshold Offset Overrun Length
03 200 ft / 61 m 9,997 ft / 3,047 m 42.13° 29.93° Asphalt 0 ft / 0 m 1,000 ft / 305 m
08 200 ft / 61 m 7,687 ft / 2,343 m 90.78° 78.58° Asphalt 0 ft / 0 m 1,000 ft / 305 m
14 200 ft / 61 m 9,027 ft / 2,752 m 154.23° 142.03° Asphalt 0 ft / 0 m 1,000 ft / 305 m
21 200 ft / 61 m 9,997 ft / 3,047 m 222.15° 209.95° Asphalt 0 ft / 0 m 1,000 ft / 305 m
26 200 ft / 61 m 7,687 ft / 2,343 m 270.79° 258.59° Asphalt 0 ft / 0 m 1,000 ft / 305 m
32 200 ft / 61 m 9,027 ft / 2,752 m 334.24° 322.04° Asphalt 0 ft / 0 m 1,000 ft / 305 m

Map

Weather


0- 5 10 15 20 25 30 35+ Temperature / ° C

Clouds and Precipitation
Forecast for 2017-12-13 18:00 UTC. Updated 15 minutes ago

Ground ~20,000 ft ~40,000 ft Winds

METAR

KNID 131256Z AUTO 26003KT 10SM CLR M04/M24 A3016 RMK AO2 SLP223 T10391239

TAF

Not found

Frequencies

Tower 120.15 MHz TWR
Approach 133.65 MHz JOSHUA APP/DEP
Warning: Do not use this data for real-world aviation or navigation. No guarantee of current accuracy is given.